Newcastle, United Kingdom
Current Conditions -  °F | °C
As of 2:50 PM on Saturday 20 Dec 2014 (Local Time) from EGAC Reporting Station
Rain Showers Rain Showers  
Wind Chill: 41°   Ceiling: 4300
Heat Index: 46°   Visibility: 6mi
Dew Point: 41°   Wind: 10mph
Humidity: 81%   Direction: 260°W
Pressure: 30.27"   Gusts: NA
Location:  54.21°N, 5.89°W
Report Text: EGAC 201450Z 26009KT 9999 VCSH FEW011 SCT023 BKN043 08/05 Q1025
Loading
Personal Weather Stations






























Interactive Weather Map New forecast layout! Learn more

10-Day Weather Forecast

Advertisements
Track Severe Weather on mobile